createdAt,value
2023-01-19T00:02:00.865Z,8.73
2023-01-19T00:04:03.089Z,8.00
2023-01-19T00:06:09.583Z,8.30
2023-01-19T00:08:15.340Z,9.07
2023-01-19T00:10:18.023Z,11.40
2023-01-19T00:12:20.350Z,10.15
2023-01-19T00:14:22.390Z,12.30
2023-01-19T00:16:24.393Z,11.00
2023-01-19T00:18:26.356Z,11.93
2023-01-19T00:20:30.630Z,14.80
2023-01-19T00:22:32.615Z,13.53
2023-01-19T00:24:34.887Z,11.90
2023-01-19T00:26:40.515Z,16.83
2023-01-19T00:28:43.754Z,12.67
2023-01-19T00:30:46.435Z,16.75
2023-01-19T00:32:48.603Z,12.53
2023-01-19T00:34:52.563Z,11.10
2023-01-19T00:36:54.548Z,11.13
2023-01-19T00:38:56.622Z,8.70
2023-01-19T00:40:58.576Z,9.80
2023-01-19T00:43:03.953Z,9.38
2023-01-19T00:45:10.587Z,11.60
2023-01-19T00:47:12.616Z,9.00
2023-01-19T00:49:14.605Z,10.20
2023-01-19T00:51:16.681Z,8.63
2023-01-19T00:53:18.588Z,8.83
2023-01-19T00:55:22.587Z,9.20
2023-01-19T00:57:24.633Z,10.13
2023-01-19T00:59:26.652Z,10.57
2023-01-19T01:01:45.085Z,8.83
2023-01-19T01:03:48.597Z,9.23
2023-01-19T01:05:50.892Z,8.20
2023-01-19T01:07:52.809Z,9.00
2023-01-19T01:09:54.826Z,8.10
2023-01-19T01:11:57.064Z,11.07
2023-01-19T01:13:59.047Z,10.65
2023-01-19T01:16:01.547Z,7.47
2023-01-19T01:18:03.660Z,8.45
2023-01-19T01:20:06.119Z,7.63
2023-01-19T01:22:09.775Z,12.43
2023-01-19T01:24:12.007Z,11.03
2023-01-19T01:26:13.907Z,8.73
2023-01-19T01:28:16.022Z,8.67
2023-01-19T01:30:18.496Z,7.70
2023-01-19T01:32:20.706Z,6.80
2023-01-19T01:34:22.719Z,6.82
2023-01-19T01:36:24.663Z,8.18
2023-01-19T01:38:26.942Z,8.20
2023-01-19T01:40:28.855Z,9.30
2023-01-19T01:42:32.520Z,6.57
2023-01-19T01:44:51.937Z,8.77
2023-01-19T01:46:54.059Z,8.20
2023-01-19T01:49:02.148Z,7.63
2023-01-19T01:51:26.429Z,5.50
2023-01-19T01:53:32.239Z,6.37
2023-01-19T01:55:38.096Z,5.57
2023-01-19T01:57:45.411Z,5.07
2023-01-19T01:59:49.853Z,4.13
2023-01-19T02:02:13.453Z,5.00
2023-01-19T02:04:16.044Z,2.80
2023-01-19T02:06:18.401Z,3.23
2023-01-19T02:08:47.102Z,2.23
2023-01-19T02:11:07.883Z,3.70
2023-01-19T02:13:22.622Z,2.57
2023-01-19T02:15:24.689Z,2.03
2023-01-19T02:17:26.795Z,3.33
2023-01-19T02:19:38.163Z,2.17
2023-01-19T02:21:54.621Z,3.83
2023-01-19T02:23:58.869Z,3.80
2023-01-19T02:26:01.980Z,3.60
2023-01-19T02:28:04.441Z,3.10
2023-01-19T02:30:08.085Z,3.70
2023-01-19T02:32:13.159Z,3.20
2023-01-19T02:34:19.005Z,4.23
2023-01-19T02:36:25.982Z,2.60
2023-01-19T02:38:29.014Z,2.13
2023-01-19T02:40:31.767Z,1.97
2023-01-19T02:42:58.481Z,2.50
2023-01-19T02:45:06.863Z,2.97
2023-01-19T02:47:09.319Z,2.40
2023-01-19T02:49:11.832Z,3.13
2023-01-19T02:51:26.241Z,3.13
2023-01-19T02:53:55.739Z,5.53
2023-01-19T02:56:19.347Z,38.60
2023-01-19T02:58:37.538Z,21.03
2023-01-19T03:01:02.942Z,15.03
2023-01-19T03:03:07.979Z,18.83
2023-01-19T03:05:20.371Z,19.00
2023-01-19T03:07:39.340Z,33.22
2023-01-19T03:10:17.563Z,31.17
2023-01-19T03:12:37.221Z,27.93
2023-01-19T03:14:46.306Z,36.63
2023-01-19T03:16:55.329Z,78.00
2023-01-19T03:19:27.282Z,56.85
2023-01-19T03:21:31.596Z,52.97
2023-01-19T03:23:36.708Z,48.60
2023-01-19T03:25:43.376Z,80.77
2023-01-19T03:27:47.381Z,65.33
2023-01-19T03:29:56.230Z,89.35
2023-01-19T03:32:01.949Z,93.23
2023-01-19T03:34:08.105Z,60.97
2023-01-19T03:36:32.777Z,56.77
2023-01-19T03:38:38.096Z,161.03
2023-01-19T03:40:41.151Z,148.33
2023-01-19T03:42:45.302Z,122.93
2023-01-19T03:44:50.708Z,136.85
2023-01-19T03:46:53.754Z,146.77
2023-01-19T03:48:57.363Z,160.87
2023-01-19T03:51:04.639Z,150.10
2023-01-19T03:53:12.789Z,116.13
2023-01-19T03:55:14.896Z,164.60
2023-01-19T03:57:17.124Z,166.77
2023-01-19T03:59:20.164Z,148.20
2023-01-19T04:01:23.261Z,140.97
2023-01-19T04:03:25.507Z,176.23
2023-01-19T04:05:27.623Z,126.37
2023-01-19T04:07:29.748Z,101.53
2023-01-19T04:09:46.793Z,100.38
2023-01-19T04:11:48.981Z,114.10
2023-01-19T04:13:51.740Z,109.68
2023-01-19T04:15:54.109Z,84.10
2023-01-19T04:17:59.775Z,126.88
2023-01-19T04:20:02.041Z,89.38
2023-01-19T04:22:04.915Z,70.38
2023-01-19T04:24:07.453Z,34.92
2023-01-19T04:26:09.424Z,31.48
2023-01-19T04:28:11.863Z,40.72
2023-01-19T04:30:14.222Z,26.60
2023-01-19T04:32:19.219Z,27.58
2023-01-19T04:34:21.449Z,15.18
2023-01-19T04:36:23.927Z,19.15
2023-01-19T04:38:26.745Z,17.20
2023-01-19T04:40:28.935Z,16.42
2023-01-19T04:42:30.885Z,21.88
2023-01-19T04:44:33.096Z,15.63
2023-01-19T04:46:38.212Z,14.45
2023-01-19T04:48:41.393Z,19.73
2023-01-19T04:50:44.584Z,11.88
2023-01-19T04:52:49.199Z,14.82
2023-01-19T04:54:51.539Z,15.13
2023-01-19T04:56:53.852Z,17.60
2023-01-19T04:58:55.849Z,15.02
2023-01-19T05:00:57.914Z,18.50
2023-01-19T05:03:01.603Z,17.02
2023-01-19T05:05:04.778Z,14.23
2023-01-19T05:07:06.778Z,19.10
2023-01-19T05:09:09.254Z,14.77
2023-01-19T05:11:11.263Z,14.18
2023-01-19T05:13:14.229Z,15.52
2023-01-19T05:15:16.312Z,11.32
2023-01-19T05:17:18.389Z,18.45
2023-01-19T05:19:21.299Z,11.00
2023-01-19T05:21:23.441Z,18.67
2023-01-19T05:23:25.593Z,13.05
2023-01-19T05:25:27.826Z,12.80
2023-01-19T05:27:29.892Z,12.98
2023-01-19T05:29:32.053Z,13.73
2023-01-19T05:31:34.772Z,13.63
2023-01-19T05:33:36.878Z,9.70
2023-01-19T05:35:39.069Z,9.18
2023-01-19T05:37:41.111Z,10.15
2023-01-19T05:39:43.225Z,13.75
2023-01-19T05:41:45.745Z,14.10
2023-01-19T05:43:48.075Z,8.10
2023-01-19T05:45:50.086Z,14.48
2023-01-19T05:47:52.040Z,15.32
2023-01-19T05:49:54.372Z,12.65
2023-01-19T05:51:56.296Z,10.90
2023-01-19T05:53:58.449Z,8.98
2023-01-19T05:56:02.361Z,11.68
2023-01-19T05:58:04.660Z,11.85
2023-01-19T06:00:07.329Z,8.35
2023-01-19T06:02:11.228Z,6.95
2023-01-19T06:04:13.249Z,11.32
2023-01-19T06:06:15.622Z,9.93
2023-01-19T06:08:17.788Z,6.15
2023-01-19T06:10:20.053Z,10.85
2023-01-19T06:12:22.112Z,8.48
2023-01-19T06:14:25.055Z,9.40
2023-01-19T06:16:27.005Z,9.38
2023-01-19T06:18:29.701Z,9.32
2023-01-19T06:20:31.921Z,8.27
2023-01-19T06:22:34.082Z,6.68
2023-01-19T06:24:35.900Z,13.85
2023-01-19T06:26:38.011Z,9.70
2023-01-19T06:28:40.089Z,9.93
2023-01-19T06:30:42.108Z,9.27
2023-01-19T06:32:44.100Z,6.93
2023-01-19T06:34:46.630Z,9.60
2023-01-19T06:36:48.859Z,8.23
2023-01-19T06:38:50.824Z,7.15
2023-01-19T06:41:03.447Z,7.97
2023-01-19T06:43:06.232Z,3.42
2023-01-19T06:45:10.227Z,7.00
2023-01-19T06:47:14.941Z,7.40
2023-01-19T06:49:18.079Z,4.18
2023-01-19T06:51:20.039Z,2.20
2023-01-19T06:53:24.353Z,4.82
2023-01-19T06:55:27.680Z,2.28
2023-01-19T06:57:31.708Z,3.22
2023-01-19T06:59:33.816Z,5.25
2023-01-19T07:01:36.310Z,4.13
2023-01-19T07:03:38.831Z,4.78
2023-01-19T07:05:40.775Z,3.40
2023-01-19T07:07:45.182Z,5.53
2023-01-19T07:09:47.414Z,2.20
2023-01-19T07:11:50.099Z,3.88
2023-01-19T07:13:55.869Z,5.13
2023-01-19T07:15:57.941Z,3.78
2023-01-19T07:18:01.800Z,3.75
2023-01-19T07:20:04.166Z,4.43
2023-01-19T07:22:06.645Z,5.43
2023-01-19T07:24:08.660Z,6.88
2023-01-19T07:26:11.086Z,5.00
2023-01-19T07:28:15.989Z,4.10
2023-01-19T07:30:18.191Z,7.72
2023-01-19T07:32:20.214Z,4.88
2023-01-19T07:34:22.630Z,3.92
2023-01-19T07:36:24.948Z,8.00
2023-01-19T07:38:27.069Z,2.53
2023-01-19T07:40:29.218Z,4.53
2023-01-19T07:42:31.304Z,5.28
2023-01-19T07:44:33.427Z,3.20
2023-01-19T07:46:35.780Z,3.53
2023-01-19T07:48:37.758Z,4.38
2023-01-19T07:50:39.805Z,3.63
2023-01-19T07:52:42.207Z,4.75
2023-01-19T07:54:44.246Z,4.38
2023-01-19T07:56:46.763Z,4.20
2023-01-19T07:58:50.451Z,3.38
2023-01-19T08:00:52.956Z,3.13
2023-01-19T08:03:00.165Z,2.97
2023-01-19T08:05:03.159Z,4.38
2023-01-19T08:07:05.283Z,2.08
2023-01-19T08:09:07.580Z,5.53
2023-01-19T08:11:09.652Z,5.47
2023-01-19T08:13:11.724Z,7.30
2023-01-19T08:15:14.748Z,6.45
2023-01-19T08:17:17.193Z,3.30
2023-01-19T08:19:19.521Z,3.53
2023-01-19T08:21:21.720Z,3.10
2023-01-19T08:23:23.793Z,2.10
2023-01-19T08:25:33.513Z,3.88
2023-01-19T08:27:35.630Z,2.53
2023-01-19T08:29:37.571Z,4.35
2023-01-19T08:31:42.697Z,3.70
2023-01-19T08:33:44.779Z,1.73
2023-01-19T08:35:53.176Z,6.03
2023-01-19T08:37:56.271Z,3.33
2023-01-19T08:39:58.343Z,3.08
2023-01-19T08:42:00.926Z,1.77
2023-01-19T08:44:03.027Z,6.75
2023-01-19T08:46:07.156Z,2.72
2023-01-19T08:48:10.468Z,1.50
2023-01-19T08:50:12.823Z,3.55
2023-01-19T08:52:15.057Z,5.82
2023-01-19T08:54:18.813Z,2.80
2023-01-19T08:56:23.878Z,1.67
2023-01-19T08:58:26.207Z,2.35
2023-01-19T09:00:28.262Z,2.75
2023-01-19T09:02:30.772Z,4.25
2023-01-19T09:04:34.759Z,11.35
2023-01-19T09:06:37.290Z,6.10
2023-01-19T09:08:39.538Z,5.00
2023-01-19T09:10:47.645Z,4.90
2023-01-19T09:12:50.601Z,7.85
2023-01-19T09:14:52.556Z,8.55
2023-01-19T09:16:56.294Z,18.77
2023-01-19T09:18:58.726Z,15.05
2023-01-19T09:21:01.961Z,14.18
2023-01-19T09:23:04.113Z,21.02
2023-01-19T09:25:08.240Z,7.07
2023-01-19T09:27:10.155Z,4.03
2023-01-19T09:29:12.193Z,6.82
2023-01-19T09:31:15.303Z,6.00
2023-01-19T09:33:20.430Z,3.33
2023-01-19T09:35:22.393Z,5.22
2023-01-19T09:37:24.477Z,6.57
2023-01-19T09:39:27.378Z,5.53
2023-01-19T09:41:30.218Z,4.13
2023-01-19T09:44:10.658Z,5.45
2023-01-19T09:46:27.778Z,3.20
2023-01-19T09:48:29.625Z,5.63
2023-01-19T09:50:38.739Z,2.17
2023-01-19T09:52:48.242Z,1.80
2023-01-19T09:54:53.437Z,3.92
2023-01-19T09:56:55.760Z,5.45
2023-01-19T09:58:59.559Z,5.00
2023-01-19T10:01:09.112Z,7.40
2023-01-19T10:04:13.422Z,4.05
2023-01-19T10:06:17.654Z,4.10
2023-01-19T10:08:38.015Z,8.50
2023-01-19T10:10:45.590Z,13.10
2023-01-19T10:13:18.455Z,9.23
2023-01-19T10:15:51.007Z,15.00
2023-01-19T10:18:12.348Z,10.98
2023-01-19T10:20:23.153Z,11.30
2023-01-19T10:22:28.805Z,4.47
2023-01-19T10:24:38.741Z,3.20
2023-01-19T10:26:48.318Z,9.15
2023-01-19T10:28:56.126Z,8.45
2023-01-19T10:30:58.554Z,3.92
2023-01-19T10:33:00.960Z,4.60
2023-01-19T10:35:21.811Z,6.60
2023-01-19T10:37:42.226Z,6.60
2023-01-19T10:39:53.075Z,3.65
2023-01-19T10:41:55.471Z,5.53
2023-01-19T10:44:05.535Z,9.15
2023-01-19T10:46:17.569Z,5.22
2023-01-19T10:48:19.752Z,3.60
2023-01-19T10:50:33.863Z,9.40
2023-01-19T10:52:37.547Z,5.75
2023-01-19T10:54:46.549Z,6.88
2023-01-19T10:56:58.947Z,8.80
2023-01-19T10:59:03.667Z,4.60
2023-01-19T11:01:26.535Z,5.88
2023-01-19T11:03:31.575Z,7.85
2023-01-19T11:05:34.484Z,7.22
2023-01-19T11:07:37.052Z,3.08
2023-01-19T11:09:39.348Z,5.55
2023-01-19T11:11:51.273Z,6.13
2023-01-19T11:14:07.366Z,3.47
2023-01-19T11:16:27.329Z,3.95
2023-01-19T11:18:30.803Z,5.35
2023-01-19T11:20:54.321Z,5.28
2023-01-19T11:23:07.511Z,3.30
2023-01-19T11:25:23.738Z,4.00
2023-01-19T11:27:27.141Z,8.90
2023-01-19T11:29:30.665Z,8.02
2023-01-19T11:31:36.465Z,5.47
2023-01-19T11:34:00.096Z,11.80
2023-01-19T11:36:05.523Z,16.90
2023-01-19T11:38:15.225Z,7.32
2023-01-19T11:40:17.438Z,12.45
2023-01-19T11:42:20.648Z,23.00
2023-01-19T11:44:35.568Z,12.55
2023-01-19T11:46:41.196Z,11.35
2023-01-19T11:49:02.066Z,6.80
2023-01-19T11:51:10.628Z,6.45
2023-01-19T11:53:28.446Z,12.32
2023-01-19T11:55:35.947Z,11.73
2023-01-19T11:57:45.550Z,8.23
2023-01-19T11:59:53.283Z,8.80
2023-01-19T12:02:00.905Z,8.27
2023-01-19T12:04:14.429Z,8.23
2023-01-19T12:06:23.361Z,10.80
2023-01-19T12:08:34.462Z,8.60
2023-01-19T12:10:41.703Z,11.43
2023-01-19T12:12:44.137Z,12.00
2023-01-19T12:15:00.517Z,9.25
2023-01-19T12:17:05.832Z,7.47
2023-01-19T12:19:18.407Z,7.93
2023-01-19T12:21:22.010Z,11.90
2023-01-19T12:23:35.514Z,15.88
2023-01-19T12:25:48.998Z,12.00
2023-01-19T12:27:52.479Z,14.77
2023-01-19T12:29:55.283Z,11.40
2023-01-19T12:32:18.423Z,12.27
2023-01-19T12:34:27.466Z,14.38
2023-01-19T12:36:50.546Z,22.45
2023-01-19T12:39:04.688Z,11.77
2023-01-19T12:41:38.687Z,10.25
2023-01-19T12:43:41.066Z,11.75
2023-01-19T12:45:45.254Z,12.85
2023-01-19T12:47:53.005Z,11.68
2023-01-19T12:50:06.976Z,17.00
2023-01-19T12:52:57.350Z,11.20
2023-01-19T12:54:59.500Z,11.63
2023-01-19T12:57:18.004Z,10.00
2023-01-19T12:59:27.599Z,15.20
2023-01-19T13:01:30.133Z,16.30
2023-01-19T13:03:32.263Z,15.13
2023-01-19T13:05:40.554Z,13.52
2023-01-19T13:08:10.469Z,11.80
2023-01-19T13:10:50.466Z,9.18
2023-01-19T13:13:24.996Z,16.17
2023-01-19T13:15:36.501Z,12.77
2023-01-19T13:17:53.589Z,24.15
2023-01-19T13:20:24.894Z,11.93
2023-01-19T13:22:51.457Z,15.45
2023-01-19T13:25:10.722Z,31.33
2023-01-19T13:27:13.623Z,17.00
2023-01-19T13:29:35.636Z,38.25
2023-01-19T13:31:41.039Z,14.85
2023-01-19T13:33:58.947Z,8.88
2023-01-19T13:36:01.307Z,11.75
2023-01-19T13:38:04.475Z,11.38
2023-01-19T13:40:07.473Z,25.80
2023-01-19T13:42:37.909Z,14.65
2023-01-19T13:44:52.331Z,23.60
2023-01-19T13:46:56.651Z,20.73
2023-01-19T13:49:04.834Z,23.58
2023-01-19T13:51:16.924Z,26.08
2023-01-19T13:53:20.901Z,47.00
2023-01-19T13:55:24.147Z,48.45
2023-01-19T13:57:29.023Z,52.85
2023-01-19T13:59:33.151Z,69.85
2023-01-19T14:01:35.309Z,35.53
2023-01-19T14:03:41.162Z,40.17
2023-01-19T14:05:44.852Z,35.00
2023-01-19T14:07:47.048Z,22.75
2023-01-19T14:10:05.584Z,17.75
2023-01-19T14:12:17.791Z,13.80
2023-01-19T14:14:27.415Z,15.15
2023-01-19T14:16:29.523Z,14.05
2023-01-19T14:18:34.084Z,23.52
2023-01-19T14:20:38.838Z,28.08
2023-01-19T14:22:48.544Z,35.25
2023-01-19T14:24:50.603Z,106.40
2023-01-19T14:26:54.835Z,65.53
2023-01-19T14:28:56.976Z,27.90
2023-01-19T14:31:02.165Z,27.30
2023-01-19T14:36:42.106Z,21.58
2023-01-19T14:38:49.905Z,15.77
2023-01-19T14:40:52.282Z,11.63
2023-01-19T14:43:06.264Z,12.07
2023-01-19T14:45:18.235Z,8.02
2023-01-19T14:47:35.783Z,9.57
2023-01-19T14:49:40.684Z,15.85
2023-01-19T14:51:47.351Z,9.30
2023-01-19T14:53:57.408Z,8.85
2023-01-19T14:56:06.077Z,12.73
2023-01-19T14:58:12.949Z,7.07
2023-01-19T15:00:20.280Z,11.77
2023-01-19T15:02:23.547Z,17.60
2023-01-19T15:04:26.177Z,22.60
2023-01-19T15:06:28.573Z,10.43
2023-01-19T15:08:33.606Z,5.72
2023-01-19T15:10:36.606Z,4.40
2023-01-19T15:12:39.043Z,5.78
2023-01-19T15:14:41.352Z,6.50
2023-01-19T15:16:43.715Z,10.85
2023-01-19T15:18:45.971Z,14.80
2023-01-19T15:20:47.973Z,9.07
2023-01-19T15:22:50.571Z,34.38
2023-01-19T15:24:57.641Z,155.52
2023-01-19T15:27:02.816Z,209.15
2023-01-19T15:29:20.350Z,259.60
2023-01-19T15:31:25.063Z,190.95
2023-01-19T15:33:30.722Z,128.57
2023-01-19T15:35:33.014Z,121.40
2023-01-19T15:37:34.934Z,94.07
2023-01-19T15:39:36.984Z,126.20
2023-01-19T15:41:40.745Z,104.30
2023-01-19T15:43:43.247Z,108.25
2023-01-19T15:46:01.066Z,150.50
2023-01-19T15:48:06.973Z,140.80
2023-01-19T15:50:09.829Z,126.95
2023-01-19T15:52:12.220Z,90.32
2023-01-19T15:54:19.763Z,86.45
2023-01-19T15:56:27.658Z,68.85
2023-01-19T15:58:29.714Z,60.22
2023-01-19T16:00:33.308Z,52.95
2023-01-19T16:02:36.783Z,87.60
2023-01-19T16:04:39.363Z,39.63
2023-01-19T16:06:41.341Z,34.05
2023-01-19T16:08:43.854Z,44.05
2023-01-19T16:10:46.039Z,42.08
2023-01-19T16:12:48.420Z,35.88
2023-01-19T16:14:50.505Z,54.83
2023-01-19T16:16:55.769Z,58.67
2023-01-19T16:18:57.985Z,34.83
2023-01-19T16:21:05.091Z,36.28
2023-01-19T16:23:14.887Z,25.73
2023-01-19T16:25:17.348Z,30.58
2023-01-19T16:27:19.616Z,34.47
2023-01-19T16:29:21.687Z,38.22
2023-01-19T16:31:24.413Z,43.72
2023-01-19T16:33:26.856Z,21.10
2023-01-19T16:35:31.929Z,26.65
2023-01-19T16:37:34.099Z,25.63
2023-01-19T16:39:36.389Z,25.73
2023-01-19T16:41:39.059Z,23.95
2023-01-19T16:43:44.038Z,20.88
2023-01-19T16:46:25.791Z,25.88
2023-01-19T16:48:28.444Z,28.17
2023-01-19T16:50:30.417Z,26.80
2023-01-19T16:52:32.954Z,21.73
2023-01-19T16:54:34.837Z,22.48
2023-01-19T16:56:36.922Z,25.67
2023-01-19T16:58:39.499Z,29.05
2023-01-19T17:00:41.427Z,23.50
2023-01-19T17:02:43.914Z,26.00
2023-01-19T17:04:46.228Z,57.60
2023-01-19T17:06:52.608Z,54.20
2023-01-19T17:08:54.799Z,52.08
2023-01-19T17:10:56.898Z,53.78
2023-01-19T17:13:02.626Z,57.10
2023-01-19T17:15:05.090Z,44.58
2023-01-19T17:17:09.418Z,31.58
2023-01-19T17:19:16.287Z,25.80
2023-01-19T17:21:19.612Z,32.13
2023-01-19T17:23:21.818Z,26.92
2023-01-19T17:25:24.350Z,26.05
2023-01-19T17:27:26.432Z,29.42
2023-01-19T17:29:31.428Z,34.38
2023-01-19T17:31:34.317Z,31.75
2023-01-19T17:33:37.222Z,33.88
2023-01-19T17:35:39.261Z,30.33
2023-01-19T17:37:41.470Z,25.35
2023-01-19T17:39:43.597Z,21.00
2023-01-19T17:41:45.798Z,27.38
2023-01-19T17:43:50.479Z,20.85
2023-01-19T17:45:54.085Z,28.98
2023-01-19T17:47:57.049Z,32.40
2023-01-19T17:49:59.342Z,27.20
2023-01-19T17:52:01.732Z,24.70
2023-01-19T17:54:04.875Z,27.00
2023-01-19T17:56:08.984Z,32.33
2023-01-19T17:58:11.370Z,27.42
2023-01-19T18:00:17.796Z,20.10
2023-01-19T18:02:24.526Z,28.48
2023-01-19T18:04:26.679Z,25.63
2023-01-19T18:06:28.876Z,19.23
2023-01-19T18:08:32.540Z,17.13
2023-01-19T18:10:34.851Z,20.90
2023-01-19T18:12:37.371Z,22.25
2023-01-19T18:14:42.647Z,17.55
2023-01-19T18:16:44.987Z,19.80
2023-01-19T18:18:49.499Z,40.10
2023-01-19T18:20:51.572Z,19.08
2023-01-19T18:22:53.725Z,17.77
2023-01-19T18:24:55.766Z,48.70
2023-01-19T18:26:57.962Z,104.70
2023-01-19T18:29:00.756Z,116.27
2023-01-19T18:31:06.378Z,121.53
2023-01-19T18:33:08.528Z,39.93
2023-01-19T18:35:13.240Z,24.00
2023-01-19T18:37:15.415Z,32.20
2023-01-19T18:39:17.390Z,22.10
2023-01-19T18:41:21.376Z,25.90
2023-01-19T18:43:23.446Z,19.43
2023-01-19T18:45:25.846Z,17.50
2023-01-19T18:47:28.491Z,18.53
2023-01-19T18:49:30.628Z,16.87
2023-01-19T18:51:33.217Z,18.13
2023-01-19T18:53:39.383Z,14.47
2023-01-19T18:55:55.156Z,11.20
2023-01-19T18:57:57.224Z,11.60
2023-01-19T18:59:59.305Z,13.47
2023-01-19T19:02:01.707Z,13.40
2023-01-19T19:04:03.937Z,12.87
2023-01-19T19:06:06.249Z,13.93
2023-01-19T19:08:08.542Z,20.67
2023-01-19T19:10:11.382Z,21.87
2023-01-19T19:12:14.085Z,23.77
2023-01-19T19:14:16.375Z,31.63
2023-01-19T19:16:18.437Z,23.77
2023-01-19T19:18:20.536Z,17.20
2023-01-19T19:20:23.556Z,12.70
2023-01-19T19:22:25.914Z,12.17
2023-01-19T19:24:28.025Z,11.47
2023-01-19T19:26:31.760Z,11.13
2023-01-19T19:28:35.969Z,8.40
2023-01-19T19:30:39.130Z,10.40
2023-01-19T19:32:41.315Z,10.87
2023-01-19T19:34:43.271Z,9.43
2023-01-19T19:36:45.576Z,9.83
2023-01-19T19:38:49.312Z,12.83
2023-01-19T19:40:54.605Z,9.63
2023-01-19T19:42:58.743Z,8.73
2023-01-19T19:45:01.086Z,9.57
2023-01-19T19:47:03.074Z,10.33
2023-01-19T19:49:05.616Z,12.00
2023-01-19T19:51:17.931Z,9.07
2023-01-19T19:53:21.119Z,10.43
2023-01-19T19:55:23.304Z,10.40
2023-01-19T19:57:25.825Z,12.17
2023-01-19T19:59:28.088Z,9.00
2023-01-19T20:01:33.459Z,6.97
2023-01-19T20:03:36.977Z,7.37
2023-01-19T20:05:39.836Z,6.80
2023-01-19T20:07:47.418Z,7.97
2023-01-19T20:09:53.205Z,7.70
2023-01-19T20:11:55.194Z,9.67
2023-01-19T20:13:57.427Z,7.40
2023-01-19T20:16:02.147Z,9.77
2023-01-19T20:18:06.470Z,7.77
2023-01-19T20:20:12.476Z,8.97
2023-01-19T20:22:15.145Z,8.20
2023-01-19T20:24:19.819Z,7.80
2023-01-19T20:26:25.650Z,8.23
2023-01-19T20:28:28.074Z,8.10
2023-01-19T20:30:32.835Z,7.27
2023-01-19T20:32:34.924Z,7.07
2023-01-19T20:34:37.147Z,8.17
2023-01-19T20:36:39.625Z,8.47
2023-01-19T20:38:42.732Z,9.13
2023-01-19T20:40:44.834Z,9.80
2023-01-19T20:42:47.374Z,41.07
2023-01-19T20:44:52.475Z,101.10
2023-01-19T20:46:55.935Z,252.60
2023-01-19T20:48:57.880Z,261.83
2023-01-19T20:51:00.386Z,266.50
2023-01-19T20:53:02.512Z,276.13
2023-01-19T20:55:07.578Z,274.97
2023-01-19T20:57:09.602Z,299.57
2023-01-19T20:59:12.799Z,299.37
2023-01-19T21:01:26.676Z,226.37
2023-01-19T21:03:29.692Z,163.70
2023-01-19T21:05:31.945Z,190.60
2023-01-19T21:07:34.102Z,156.97
2023-01-19T21:09:38.276Z,123.23
2023-01-19T21:11:40.636Z,100.53
2023-01-19T21:13:45.455Z,64.33
2023-01-19T21:15:47.758Z,61.43
2023-01-19T21:17:49.892Z,87.23
2023-01-19T21:19:51.910Z,140.57
2023-01-19T21:21:55.379Z,147.20
2023-01-19T21:23:58.872Z,138.23
2023-01-19T21:26:01.407Z,134.13
2023-01-19T21:28:03.919Z,102.03
2023-01-19T21:30:07.021Z,90.27
2023-01-19T21:32:09.343Z,107.87
2023-01-19T21:34:11.867Z,85.90
2023-01-19T21:36:13.975Z,97.33
2023-01-19T21:38:16.150Z,149.23
2023-01-19T21:40:18.704Z,156.83
2023-01-19T21:42:20.863Z,128.83
2023-01-19T21:44:22.843Z,109.47
2023-01-19T21:46:32.868Z,98.73
2023-01-19T21:48:35.206Z,70.53
2023-01-19T21:50:37.983Z,57.57
2023-01-19T21:52:40.245Z,44.27
2023-01-19T21:54:42.265Z,35.10
2023-01-19T21:56:44.725Z,29.80
2023-01-19T21:58:47.692Z,25.77
2023-01-19T22:00:50.228Z,17.27
2023-01-19T22:03:03.354Z,17.87
2023-01-19T22:05:08.420Z,29.73
2023-01-19T22:07:10.340Z,25.17
2023-01-19T22:09:12.872Z,22.70
2023-01-19T22:11:18.053Z,24.97
2023-01-19T22:13:20.461Z,20.63
2023-01-19T22:15:22.544Z,42.50
2023-01-19T22:17:24.606Z,55.50
2023-01-19T22:19:26.893Z,46.23
2023-01-19T22:21:32.244Z,54.33
2023-01-19T22:23:34.394Z,50.87
2023-01-19T22:25:36.588Z,49.63
2023-01-19T22:27:38.889Z,49.97
2023-01-19T22:29:40.878Z,66.67
2023-01-19T22:31:43.350Z,59.90
2023-01-19T22:33:45.601Z,81.97
2023-01-19T22:35:47.937Z,90.63
2023-01-19T22:37:50.289Z,95.20
2023-01-19T22:39:53.489Z,131.37
2023-01-19T22:41:55.461Z,106.20
2023-01-19T22:44:02.847Z,110.63
2023-01-19T22:46:07.315Z,96.60
2023-01-19T22:48:10.617Z,108.37
2023-01-19T22:50:12.744Z,107.70
2023-01-19T22:52:15.136Z,126.17
2023-01-19T22:54:17.197Z,130.07
2023-01-19T22:56:21.978Z,173.47
2023-01-19T22:58:24.101Z,225.70
2023-01-19T23:00:26.174Z,226.07
2023-01-19T23:02:28.683Z,187.20
2023-01-19T23:04:31.007Z,176.40
2023-01-19T23:10:29.180Z,86.87
2023-01-19T23:12:31.364Z,55.43
2023-01-19T23:14:33.452Z,51.37
2023-01-19T23:16:38.759Z,32.23
2023-01-19T23:18:44.846Z,29.60
2023-01-19T23:20:47.029Z,39.77
2023-01-19T23:22:49.300Z,77.77
2023-01-19T23:24:51.350Z,104.23
2023-01-19T23:26:54.730Z,94.40
2023-01-19T23:29:01.734Z,83.43
2023-01-19T23:31:24.724Z,56.87
2023-01-19T23:33:27.446Z,37.50
2023-01-19T23:35:29.845Z,30.90
2023-01-19T23:37:31.902Z,26.27
2023-01-19T23:39:34.204Z,23.37
2023-01-19T23:41:36.463Z,18.13
2023-01-19T23:43:39.277Z,17.03
2023-01-19T23:45:41.592Z,16.97
2023-01-19T23:47:46.527Z,17.10
2023-01-19T23:49:49.108Z,17.00
2023-01-19T23:51:53.883Z,15.13
2023-01-19T23:53:57.555Z,18.77
2023-01-19T23:55:59.548Z,50.23
2023-01-19T23:58:01.576Z,43.20
